Bookmark and Share
Track history (hours):
 

Bay Bridge

Last reported at 2014-Apr-13 14:32 UTC. Time now 2014-Apr-17 15:34 UTC.
Position N 29°40' E 122°36'.

Length 267 m; draft 11.9 m.

Type: Ship (hazmat cat A). MMSI: 354120000.

NotesDate/timePositionNaut miles runAvg speedWind from/ knotsBaromVisibWave heightAir tempDewpointWater temp
2014-Apr-13 14:32N 29°40' E 122°36'1616.4
2014-Apr-13 13:33N 29°45' E 122°18'1212.4
2014-Apr-13 12:33N 29°55' E 122°09'1212.3
2014-Apr-13 11:33N 29°57' E 121°55'4 4.3
2014-Apr-13 10:33N 29°57' E 121°51'0 0.0
2014-Apr-13 09:33N 29°57' E 121°51'0 0.0
2014-Apr-13 08:30N 29°57' E 121°51'0 0.0
2014-Apr-13 07:33N 29°57' E 121°51'0 0.0
2014-Apr-13 06:33N 29°57' E 121°51'0 0.0
2014-Apr-13 05:33N 29°57' E 121°51'0 0.0
2014-Apr-13 04:33N 29°57' E 121°51'0 0.0
2014-Apr-13 03:27N 29°57' E 121°51'0 0.0
2014-Apr-13 02:30N 29°57' E 121°51'0 0.0
2014-Apr-13 01:33N 29°57' E 121°51'0 0.0
2014-Apr-13 00:33N 29°57' E 121°51'0 0.0
2014-Apr-12 23:33N 29°57' E 121°51'0 0.0
2014-Apr-12 22:30N 29°57' E 121°51'0 0.0
2014-Apr-12 21:33N 29°57' E 121°51'1 1.0
2014-Apr-12 20:33N 29°57' E 121°52'7 6.9
2014-Apr-12 19:33N 29°57' E 121°60'1313.4
2014-Apr-12 18:33N 29°50' E 122°13'10 9.9
2014-Apr-12 17:33N 29°44' E 122°22'8 8.0
2014-Apr-12 16:33N 29°43' E 122°31'0 0.1
2014-Apr-12 15:28N 29°43' E 122°31'0 0.1
2014-Apr-12 13:10N 29°43' E 122°31'0 0.0
2014-Apr-12 12:28N 29°43' E 122°31'0 0.0
2014-Apr-12 11:10N 29°43' E 122°31'0 0.1
2014-Apr-12 10:28N 29°43' E 122°31'0 0.1
2014-Apr-12 09:28N 29°43' E 122°31'0 0.1
2014-Apr-12 08:28N 29°43' E 122°31'0 0.1
2014-Apr-12 07:28N 29°43' E 122°31'0 0.1
2014-Apr-12 06:28N 29°43' E 122°31'0 0.1
2014-Apr-12 05:28N 29°43' E 122°31'0 0.1
2014-Apr-12 04:28N 29°43' E 122°31'0 0.1
2014-Apr-12 03:28N 29°43' E 122°31'0 0.1
2014-Apr-12 02:28N 29°43' E 122°31'0 0.0
2014-Apr-12 01:28N 29°43' E 122°31'4 4.6
2014-Apr-12 00:34N 29°45' E 122°35'1815.2
2014-Apr-11 23:22N 29°51' E 122°55'10111.1
2014-Apr-11 14:15N 31°16' E 121°52'1013.8
2014-Apr-11 13:33N 31°20' E 121°42'2 1.4
2014-Apr-11 12:06N 31°20' E 121°39'0 0.0
2014-Apr-11 11:30N 31°20' E 121°39'0 0.0
2014-Apr-11 10:18N 31°20' E 121°39'0 0.0
2014-Apr-11 09:12N 31°20' E 121°39'0 0.0
2014-Apr-11 05:18N 31°20' E 121°39'0 0.0
2014-Apr-11 04:24N 31°20' E 121°39'0 0.0
2014-Apr-11 03:29N 31°20' E 121°39'0 0.0
2014-Apr-11 01:29N 31°20' E 121°39'0 0.0
2014-Apr-10 23:29N 31°20' E 121°39'0 0.0
2014-Apr-10 22:29N 31°20' E 121°39'0 0.0
2014-Apr-10 21:23N 31°20' E 121°39'0 0.0
2014-Apr-10 19:20N 31°20' E 121°39'0 0.0
2014-Apr-10 18:23N 31°20' E 121°39'0 0.0
2014-Apr-10 17:29N 31°20' E 121°39'0 0.0
2014-Apr-10 16:23N 31°20' E 121°39'0 0.0
2014-Apr-10 15:29N 31°20' E 121°39'1 1.5
2014-Apr-10 14:33N 31°21' E 121°41'1010.1
2014-Apr-10 13:33N 31°16' E 121°51'1010.4
2014-Apr-10 12:33N 31°14' E 122°03'9 8.5
2014-Apr-10 11:33N 31°10' E 122°12'8 7.6
2014-Apr-10 10:33N 31°06' E 122°20'8 8.2
2014-Apr-10 09:33N 31°06' E 122°29'5 4.9
2014-Apr-10 08:33N 31°08' E 122°34'7 6.6
2014-Apr-10 07:32N 31°07' E 122°42'2 0.6
2014-Apr-10 03:26N 31°07' E 122°45'7 7.3
2014-Apr-10 02:32N 31°06' E 122°37'9 9.4
2014-Apr-10 01:33N 31°06' E 122°27'0 0.1
2014-Apr-10 00:24N 31°06' E 122°27'0 0.1
2014-Apr-09 22:33N 31°06' E 122°26'5 5.2
2014-Apr-09 21:31N 31°05' E 122°20'6 5.8
2014-Apr-09 20:33N 31°06' E 122°27'8 7.7
2014-Apr-09 19:33N 31°07' E 122°36'9 8.4
2014-Apr-09 18:32N 31°07' E 122°45'  
2014-Apr-06 14:33N 29°41' E 122°36'1515.2
2014-Apr-06 13:34N 29°45' E 122°19'1313.0
2014-Apr-06 12:34N 29°55' E 122°09'1414.2
2014-Apr-06 11:33N 29°57' E 121°53'1 1.4
2014-Apr-06 10:33N 29°56' E 121°52'0 0.0
2014-Apr-06 09:33N 29°56' E 121°52'0 0.0
2014-Apr-06 08:33N 29°56' E 121°52'0 0.0
2014-Apr-06 07:33N 29°56' E 121°52'0 0.0
2014-Apr-06 06:33N 29°56' E 121°52'0 0.0
2014-Apr-06 05:33N 29°56' E 121°52'0 0.0
2014-Apr-06 04:30N 29°56' E 121°52'0 0.0
2014-Apr-06 03:33N 29°56' E 121°52'0 0.0
2014-Apr-06 02:33N 29°56' E 121°52'1 1.0
2014-Apr-06 01:33N 29°56' E 121°53'1212.1
2014-Apr-06 00:34N 29°56' E 122°07'1111.5
2014-Apr-05 23:33N 29°47' E 122°16'7 7.1
2014-Apr-05 22:33N 29°44' E 122°23'6 5.8
2014-Apr-05 21:33N 29°43' E 122°30'1 1.0
2014-Apr-05 20:33N 29°43' E 122°31'0 0.1
2014-Apr-05 19:33N 29°43' E 122°31'0 0.1
2014-Apr-05 18:33N 29°43' E 122°31'0 0.1
2014-Apr-05 17:33N 29°43' E 122°31'0 0.1
2014-Apr-05 16:33N 29°43' E 122°31'0 0.0
2014-Apr-05 15:33N 29°43' E 122°31'0 0.0
2014-Apr-05 14:33N 29°43' E 122°31'0 0.1
2014-Apr-05 13:27N 29°43' E 122°31'0 0.0
2014-Apr-05 12:33N 29°43' E 122°31'0 0.1
2014-Apr-05 11:33N 29°43' E 122°31'0 0.0
2014-Apr-05 10:33N 29°43' E 122°31'0 0.0
2014-Apr-05 09:27N 29°43' E 122°31'0 0.0
2014-Apr-05 08:33N 29°43' E 122°31'0 0.0
2014-Apr-05 07:33N 29°43' E 122°31'0 0.3
2014-Apr-05 06:31N 29°43' E 122°31'6 6.5
2014-Apr-05 05:33N 29°46' E 122°38'1212.2
2014-Apr-05 04:33N 29°45' E 122°52'2812.3
2014-Apr-05 02:17N 29°47' E 123°24'6012.7
2014-Apr-04 21:33N 29°55' E 124°33'2912.4
2014-Apr-04 19:13N 29°59' E 125°06'  

Dump ship's entire track history

sailing weather and tide predictions

Bay Bridge — 3FCS5 — position and weather